createdAt,value
2022-12-24T00:00:12.882Z,16.25
2022-12-24T00:02:40.825Z,20.80
2022-12-24T00:05:17.982Z,17.13
2022-12-24T00:07:45.521Z,23.50
2022-12-24T00:10:13.243Z,16.25
2022-12-24T00:12:41.052Z,15.93
2022-12-24T00:15:09.329Z,15.55
2022-12-24T00:17:38.390Z,19.00
2022-12-24T00:20:06.532Z,15.20
2022-12-24T00:22:34.121Z,16.15
2022-12-24T00:25:05.141Z,18.13
2022-12-24T00:27:32.827Z,13.30
2022-12-24T00:30:00.357Z,16.50
2022-12-24T00:32:27.952Z,15.07
2022-12-24T00:34:57.062Z,16.80
2022-12-24T00:37:24.536Z,19.65
2022-12-24T00:39:52.359Z,17.40
2022-12-24T00:42:20.040Z,16.50
2022-12-24T00:44:47.627Z,22.93
2022-12-24T00:47:15.223Z,11.50
2022-12-24T00:49:43.026Z,14.48
2022-12-24T00:52:11.956Z,21.08
2022-12-24T00:54:39.492Z,17.63
2022-12-24T00:57:09.662Z,14.07
2022-12-24T00:59:37.226Z,15.23
2022-12-24T01:02:05.117Z,14.93
2022-12-24T01:04:50.610Z,15.30
2022-12-24T01:07:19.447Z,17.33
2022-12-24T01:09:49.199Z,15.17
2022-12-24T01:12:16.878Z,15.25
2022-12-24T01:14:44.461Z,16.27
2022-12-24T01:17:12.190Z,15.55
2022-12-24T01:19:39.742Z,12.00
2022-12-24T01:22:07.262Z,11.83
2022-12-24T01:24:36.291Z,17.73
2022-12-24T01:27:03.929Z,13.77
2022-12-24T01:29:34.940Z,9.55
2022-12-24T01:32:02.626Z,10.60
2022-12-24T01:34:30.333Z,17.47
2022-12-24T01:36:57.862Z,19.42
2022-12-24T01:39:25.753Z,12.82
2022-12-24T01:42:12.242Z,10.70
2022-12-24T01:44:41.418Z,15.70
2022-12-24T01:47:10.344Z,12.37
2022-12-24T01:49:39.751Z,17.48
2022-12-24T01:52:09.545Z,10.32
2022-12-24T01:54:41.871Z,12.15
2022-12-24T01:57:12.064Z,10.20
2022-12-24T01:59:40.630Z,9.27
2022-12-24T02:02:08.440Z,11.73
2022-12-24T02:04:38.402Z,16.00
2022-12-24T02:07:06.134Z,11.65
2022-12-24T02:09:34.682Z,12.07
2022-12-24T02:12:02.875Z,14.80
2022-12-24T02:14:33.249Z,13.10
2022-12-24T02:17:11.760Z,11.98
2022-12-24T02:19:52.502Z,14.27
2022-12-24T02:22:25.310Z,11.75
2022-12-24T02:25:05.483Z,11.60
2022-12-24T02:27:35.956Z,14.70
2022-12-24T02:30:13.128Z,9.20
2022-12-24T02:32:47.683Z,13.75
2022-12-24T02:35:17.224Z,13.60
2022-12-24T02:37:48.595Z,10.13
2022-12-24T02:40:17.525Z,14.10
2022-12-24T02:42:48.065Z,12.05
2022-12-24T02:45:18.142Z,12.68
2022-12-24T02:47:46.344Z,14.93
2022-12-24T02:50:14.672Z,18.90
2022-12-24T02:52:43.482Z,9.80
2022-12-24T02:55:13.645Z,16.73
2022-12-24T02:57:54.991Z,23.80
2022-12-24T03:00:24.642Z,7.22
2022-12-24T03:03:01.522Z,17.30
2022-12-24T03:05:30.925Z,12.25
2022-12-24T03:08:02.588Z,21.65
2022-12-24T03:10:33.509Z,11.52
2022-12-24T03:13:03.885Z,9.60
2022-12-24T03:15:33.180Z,14.53
2022-12-24T03:18:01.669Z,20.63
2022-12-24T03:20:32.350Z,12.68
2022-12-24T03:23:01.232Z,10.38
2022-12-24T03:25:29.002Z,12.32
2022-12-24T03:27:57.835Z,14.00
2022-12-24T03:30:25.429Z,14.68
2022-12-24T03:32:54.290Z,14.25
2022-12-24T03:35:22.139Z,11.18
2022-12-24T03:37:50.131Z,11.98
2022-12-24T03:40:17.761Z,13.87
2022-12-24T03:42:45.637Z,9.68
2022-12-24T03:45:13.150Z,16.38
2022-12-24T03:47:40.767Z,12.40
2022-12-24T03:50:11.379Z,10.73
2022-12-24T03:52:38.926Z,13.50
2022-12-24T03:55:06.743Z,13.90
2022-12-24T03:57:34.519Z,13.23
2022-12-24T04:00:02.101Z,18.48
2022-12-24T04:02:29.813Z,10.85
2022-12-24T04:04:57.596Z,13.60
2022-12-24T04:07:27.126Z,14.23
2022-12-24T04:09:54.685Z,13.60
2022-12-24T04:12:22.632Z,17.65
2022-12-24T04:14:50.401Z,17.73
2022-12-24T04:17:18.347Z,12.53
2022-12-24T04:19:46.040Z,18.58
2022-12-24T04:22:13.622Z,13.15
2022-12-24T04:24:42.478Z,9.68
2022-12-24T04:27:10.230Z,13.48
2022-12-24T04:29:37.738Z,14.37
2022-12-24T04:32:05.513Z,21.25
2022-12-24T04:34:33.397Z,19.88
2022-12-24T04:37:00.939Z,14.88
2022-12-24T04:39:28.524Z,14.35
2022-12-24T04:41:58.818Z,13.17
2022-12-24T04:44:26.434Z,11.50
2022-12-24T04:46:54.062Z,17.52
2022-12-24T04:49:21.808Z,15.73
2022-12-24T04:51:49.433Z,12.43
2022-12-24T04:54:16.936Z,19.67
2022-12-24T04:56:44.727Z,15.68
2022-12-24T04:59:13.837Z,19.85
2022-12-24T05:01:41.484Z,20.48
2022-12-24T05:04:11.215Z,18.17
2022-12-24T05:06:38.799Z,12.77
2022-12-24T05:09:06.317Z,18.25
2022-12-24T05:11:33.973Z,21.08
2022-12-24T05:14:01.747Z,16.40
2022-12-24T05:16:30.641Z,12.18
2022-12-24T05:18:58.367Z,20.63
2022-12-24T05:21:26.327Z,16.02
2022-12-24T05:24:12.893Z,19.30
2022-12-24T05:26:42.069Z,19.10
2022-12-24T05:29:12.074Z,12.95
2022-12-24T05:31:45.342Z,14.60
2022-12-24T05:34:13.517Z,18.15
2022-12-24T05:36:41.190Z,17.13
2022-12-24T05:39:15.328Z,15.10
2022-12-24T05:41:43.646Z,16.05
2022-12-24T05:44:11.363Z,15.10
2022-12-24T05:46:39.080Z,20.05
2022-12-24T05:49:08.097Z,16.52
2022-12-24T05:51:35.857Z,19.13
2022-12-24T05:54:03.431Z,13.75
2022-12-24T05:56:31.007Z,19.50
2022-12-24T05:58:59.845Z,15.18
2022-12-24T06:01:27.823Z,21.33
2022-12-24T06:03:55.469Z,20.80
2022-12-24T06:06:26.456Z,16.38
2022-12-24T06:08:54.477Z,12.63
2022-12-24T06:11:23.280Z,12.95
2022-12-24T06:13:51.097Z,15.75
2022-12-24T06:16:19.497Z,21.35
2022-12-24T06:18:47.398Z,13.75
2022-12-24T06:21:16.048Z,12.03
2022-12-24T06:23:45.621Z,13.55
2022-12-24T06:26:14.230Z,17.80
2022-12-24T06:28:42.035Z,19.73
2022-12-24T06:31:12.910Z,13.10
2022-12-24T06:33:40.438Z,17.57
2022-12-24T06:36:14.977Z,14.02
2022-12-24T06:38:48.397Z,14.23
2022-12-24T06:41:16.210Z,14.38
2022-12-24T06:43:44.839Z,12.95
2022-12-24T06:46:12.521Z,16.03
2022-12-24T06:48:40.250Z,13.90
2022-12-24T06:51:07.862Z,12.13
2022-12-24T06:53:38.337Z,18.08
2022-12-24T06:56:08.861Z,14.50
2022-12-24T06:58:36.565Z,17.60
2022-12-24T07:01:04.878Z,17.95
2022-12-24T07:03:33.032Z,13.73
2022-12-24T07:06:00.705Z,19.10
2022-12-24T07:08:33.227Z,11.38
2022-12-24T07:11:02.551Z,12.33
2022-12-24T07:13:34.282Z,20.40
2022-12-24T07:16:02.914Z,13.15
2022-12-24T07:18:31.246Z,15.60
2022-12-24T07:20:59.128Z,13.23
2022-12-24T07:23:26.868Z,14.57
2022-12-24T07:25:54.697Z,11.10
2022-12-24T07:28:27.426Z,12.25
2022-12-24T07:30:57.321Z,12.18
2022-12-24T07:33:25.024Z,14.25
2022-12-24T07:35:59.159Z,12.97
2022-12-24T07:38:26.859Z,14.88
2022-12-24T07:40:54.418Z,16.50
2022-12-24T07:43:22.109Z,16.58
2022-12-24T07:45:49.722Z,16.40
2022-12-24T07:48:18.643Z,13.80
2022-12-24T07:50:46.322Z,18.15
2022-12-24T07:53:14.005Z,16.45
2022-12-24T07:55:42.707Z,14.65
2022-12-24T07:58:10.412Z,11.70
2022-12-24T08:00:39.439Z,13.40
2022-12-24T08:03:07.092Z,11.07
2022-12-24T08:05:36.720Z,13.18
2022-12-24T08:08:04.558Z,11.82
2022-12-24T08:10:32.122Z,15.45
2022-12-24T08:12:59.795Z,14.30
2022-12-24T08:15:27.407Z,15.27
2022-12-24T08:17:55.055Z,20.27
2022-12-24T08:20:22.645Z,14.20
2022-12-24T08:22:51.792Z,9.38
2022-12-24T08:25:19.672Z,20.13
2022-12-24T08:27:49.091Z,18.10
2022-12-24T08:30:21.044Z,13.40
2022-12-24T08:32:49.419Z,17.42
2022-12-24T08:35:17.105Z,14.00
2022-12-24T08:37:44.683Z,12.07
2022-12-24T08:40:14.161Z,16.08
2022-12-24T08:42:41.839Z,14.18
2022-12-24T08:45:10.119Z,17.58
2022-12-24T08:47:37.906Z,10.38
2022-12-24T08:50:05.968Z,14.37
2022-12-24T08:52:33.757Z,14.82
2022-12-24T08:55:01.260Z,11.88
2022-12-24T08:57:30.390Z,9.30
2022-12-24T08:59:58.090Z,12.10
2022-12-24T09:02:25.750Z,12.70
2022-12-24T09:04:53.566Z,13.20
2022-12-24T09:07:21.356Z,20.05
2022-12-24T09:09:48.882Z,11.65
2022-12-24T09:12:16.461Z,9.90
2022-12-24T09:14:45.498Z,13.53
2022-12-24T09:17:13.037Z,16.58
2022-12-24T09:19:41.032Z,10.27
2022-12-24T09:22:08.794Z,14.25
2022-12-24T09:24:39.489Z,18.63
2022-12-24T09:27:07.323Z,17.37
2022-12-24T09:29:35.568Z,19.98
2022-12-24T09:32:07.898Z,14.88
2022-12-24T09:34:35.750Z,23.00
2022-12-24T09:37:03.336Z,15.50
2022-12-24T09:39:30.927Z,10.30
2022-12-24T09:42:04.706Z,14.90
2022-12-24T09:44:35.952Z,14.40
2022-12-24T09:47:11.580Z,12.80
2022-12-24T09:49:43.219Z,13.68
2022-12-24T09:52:11.779Z,14.50
2022-12-24T09:54:47.788Z,11.35
2022-12-24T09:57:21.950Z,17.00
2022-12-24T09:59:50.634Z,10.07
2022-12-24T10:02:19.497Z,16.83
2022-12-24T10:04:49.367Z,20.20
2022-12-24T10:07:25.213Z,15.38
2022-12-24T10:10:00.882Z,13.82
2022-12-24T10:12:33.833Z,16.75
2022-12-24T10:15:04.747Z,15.05
2022-12-24T10:17:39.603Z,14.63
2022-12-24T10:20:21.848Z,20.75
2022-12-24T10:22:52.579Z,14.05
2022-12-24T10:25:22.987Z,17.67
2022-12-24T10:27:50.624Z,14.98
2022-12-24T10:30:19.697Z,14.60
2022-12-24T10:32:48.544Z,19.60
2022-12-24T10:35:23.885Z,13.07
2022-12-24T10:37:52.668Z,12.95
2022-12-24T10:40:26.972Z,22.42
2022-12-24T10:42:54.763Z,20.43
2022-12-24T10:45:23.828Z,13.93
2022-12-24T10:47:53.867Z,14.52
2022-12-24T10:50:29.781Z,18.95
2022-12-24T10:53:02.143Z,21.10
2022-12-24T10:55:30.015Z,17.90
2022-12-24T10:57:59.269Z,14.82
2022-12-24T11:00:31.909Z,15.23
2022-12-24T11:03:07.825Z,16.23
2022-12-24T11:05:37.493Z,20.70
2022-12-24T11:08:06.532Z,22.43
2022-12-24T11:10:36.823Z,21.27
2022-12-24T11:13:36.355Z,16.88
2022-12-24T11:15:52.952Z,21.30
2022-12-24T11:18:20.502Z,22.27
2022-12-24T11:20:53.003Z,9.60
2022-12-24T11:23:20.744Z,18.65
2022-12-24T11:25:49.409Z,19.85
2022-12-24T11:28:21.911Z,15.38
2022-12-24T11:30:57.152Z,20.00
2022-12-24T11:33:24.838Z,14.33
2022-12-24T11:35:58.607Z,21.20
2022-12-24T11:38:27.523Z,13.70
2022-12-24T11:41:00.192Z,16.35
2022-12-24T11:43:44.331Z,19.27
2022-12-24T11:46:13.732Z,16.23
2022-12-24T11:48:41.270Z,15.73
2022-12-24T11:51:20.147Z,15.77
2022-12-24T11:53:50.621Z,23.30
2022-12-24T11:56:25.663Z,24.67
2022-12-24T11:58:58.989Z,16.80
2022-12-24T12:01:30.497Z,21.67
2022-12-24T12:04:00.645Z,20.38
2022-12-24T12:06:33.813Z,25.02
2022-12-24T12:09:03.560Z,20.38
2022-12-24T12:11:31.291Z,23.17
2022-12-24T12:14:00.582Z,16.88
2022-12-24T12:16:30.655Z,26.25
2022-12-24T12:19:00.969Z,19.40
2022-12-24T12:21:33.901Z,16.70
2022-12-24T12:24:04.629Z,14.27
2022-12-24T12:26:33.323Z,16.98
2022-12-24T12:29:03.222Z,20.08
2022-12-24T12:31:34.077Z,15.13
2022-12-24T12:34:05.728Z,14.25
2022-12-24T12:36:37.276Z,20.03
2022-12-24T12:39:05.539Z,15.65
2022-12-24T12:41:51.512Z,22.20
2022-12-24T12:44:36.736Z,20.00
2022-12-24T12:47:20.087Z,12.32
2022-12-24T12:49:50.862Z,15.43
2022-12-24T12:52:24.767Z,17.85
2022-12-24T12:54:59.557Z,21.08
2022-12-24T12:57:29.502Z,23.75
2022-12-24T12:59:59.231Z,15.30
2022-12-24T13:02:36.214Z,23.67
2022-12-24T13:05:27.632Z,21.27
2022-12-24T13:08:13.051Z,29.80
2022-12-24T13:10:55.826Z,21.95
2022-12-24T13:13:41.125Z,26.15
2022-12-24T13:16:19.334Z,20.17
2022-12-24T13:18:54.634Z,18.58
2022-12-24T13:21:27.155Z,28.42
2022-12-24T13:24:05.604Z,25.70
2022-12-24T13:26:34.860Z,28.35
2022-12-24T13:29:21.210Z,21.53
2022-12-24T13:31:49.039Z,23.80
2022-12-24T13:34:34.725Z,20.67
2022-12-24T13:37:04.626Z,18.92
2022-12-24T13:39:47.114Z,34.20
2022-12-24T13:42:36.406Z,19.20
2022-12-24T13:45:18.836Z,22.88
2022-12-24T13:47:46.587Z,26.38
2022-12-24T13:50:32.056Z,22.88
2022-12-24T13:52:59.784Z,23.58
2022-12-24T13:55:27.369Z,26.60
2022-12-24T13:57:58.573Z,24.55
2022-12-24T14:00:32.504Z,21.15
2022-12-24T14:03:02.293Z,30.60
2022-12-24T14:05:32.764Z,24.20
2022-12-24T14:08:01.140Z,31.43
2022-12-24T14:10:31.371Z,26.55
2022-12-24T14:13:00.481Z,29.98
2022-12-24T14:15:46.959Z,24.92
2022-12-24T14:18:18.240Z,21.27
2022-12-24T14:20:49.367Z,28.03
2022-12-24T14:23:21.529Z,20.45
2022-12-24T14:25:49.847Z,20.80
2022-12-24T14:28:22.977Z,26.73
2022-12-24T14:31:00.497Z,18.95
2022-12-24T14:33:31.298Z,16.93
2022-12-24T14:35:59.229Z,24.77
2022-12-24T14:38:27.204Z,21.15
2022-12-24T14:40:58.333Z,21.73
2022-12-24T14:43:29.365Z,24.20
2022-12-24T14:46:00.656Z,28.80
2022-12-24T14:48:33.315Z,28.45
2022-12-24T14:51:11.191Z,28.35
2022-12-24T14:53:57.713Z,26.95
2022-12-24T14:56:25.668Z,24.30
2022-12-24T14:59:04.466Z,32.27
2022-12-24T15:01:34.316Z,21.75
2022-12-24T15:04:03.280Z,22.60
2022-12-24T15:06:32.907Z,25.90
2022-12-24T15:09:00.768Z,22.80
2022-12-24T15:11:28.551Z,25.97
2022-12-24T15:13:58.354Z,23.80
2022-12-24T15:16:28.102Z,25.58
2022-12-24T15:18:57.586Z,18.95
2022-12-24T15:21:26.978Z,25.00
2022-12-24T15:23:54.667Z,22.27
2022-12-24T15:26:23.991Z,23.30
2022-12-24T15:28:56.590Z,19.02
2022-12-24T15:31:30.127Z,28.30
2022-12-24T15:34:00.962Z,26.52
2022-12-24T15:36:31.715Z,25.57
2022-12-24T15:39:01.454Z,23.23
2022-12-24T15:41:30.659Z,17.17
2022-12-24T15:44:01.613Z,22.83
2022-12-24T15:46:33.080Z,24.25
2022-12-24T15:49:03.308Z,27.13
2022-12-24T15:51:32.573Z,28.77
2022-12-24T15:54:00.923Z,16.45
2022-12-24T15:56:32.437Z,19.30
2022-12-24T15:59:13.423Z,19.10
2022-12-24T16:01:43.122Z,18.77
2022-12-24T16:04:13.632Z,24.08
2022-12-24T16:06:57.861Z,24.30
2022-12-24T16:09:32.485Z,17.85
2022-12-24T16:12:03.410Z,25.67
2022-12-24T16:14:33.123Z,18.47
2022-12-24T16:17:02.327Z,30.77
2022-12-24T16:19:39.402Z,34.17
2022-12-24T16:22:21.875Z,21.33
2022-12-24T16:24:49.651Z,15.05
2022-12-24T16:27:17.331Z,15.43
2022-12-24T16:29:46.990Z,26.13
2022-12-24T16:32:27.746Z,25.33
2022-12-24T16:34:55.439Z,17.15
2022-12-24T16:37:23.097Z,20.08
2022-12-24T16:39:50.651Z,21.53
2022-12-24T16:42:36.011Z,27.20
2022-12-24T16:45:03.549Z,13.07
2022-12-24T16:47:38.669Z,17.60
2022-12-24T16:50:15.663Z,19.33
2022-12-24T16:52:43.358Z,21.93
2022-12-24T16:55:13.594Z,21.20
2022-12-24T16:57:42.139Z,24.67
2022-12-24T17:00:10.521Z,19.75
2022-12-24T17:02:40.610Z,21.73
2022-12-24T17:05:08.734Z,21.83
2022-12-24T17:07:41.343Z,25.92
2022-12-24T17:10:11.741Z,15.88
2022-12-24T17:12:39.481Z,17.80
2022-12-24T17:15:07.497Z,17.63
2022-12-24T17:17:35.279Z,21.03
2022-12-24T17:20:05.255Z,19.05
2022-12-24T17:22:32.855Z,13.52
2022-12-24T17:25:00.623Z,20.17
2022-12-24T17:27:28.355Z,16.35
2022-12-24T17:29:56.452Z,17.97
2022-12-24T17:32:24.444Z,19.30
2022-12-24T17:34:55.338Z,16.17
2022-12-24T17:37:24.300Z,14.38
2022-12-24T17:39:53.341Z,9.07
2022-12-24T17:42:21.048Z,14.93
2022-12-24T17:44:48.640Z,19.50
2022-12-24T17:47:16.304Z,12.60
2022-12-24T17:49:43.921Z,11.95
2022-12-24T17:52:11.498Z,12.93
2022-12-24T17:54:40.532Z,11.70
2022-12-24T17:57:08.186Z,8.25
2022-12-24T17:59:35.778Z,10.00
2022-12-24T18:02:03.543Z,12.05
2022-12-24T18:04:31.231Z,10.07
2022-12-24T18:07:03.166Z,12.70
2022-12-24T18:09:31.079Z,12.63
2022-12-24T18:12:00.860Z,10.98
2022-12-24T18:14:29.376Z,8.85
2022-12-24T18:16:57.333Z,11.45
2022-12-24T18:19:24.893Z,11.00
2022-12-24T18:21:52.491Z,15.18
2022-12-24T18:24:20.459Z,23.15
2022-12-24T18:26:48.419Z,14.68
2022-12-24T18:29:17.655Z,13.38
2022-12-24T18:31:45.412Z,15.03
2022-12-24T18:34:14.006Z,12.05
2022-12-24T18:36:41.854Z,15.63
2022-12-24T18:39:09.890Z,15.77
2022-12-24T18:41:37.694Z,13.98
2022-12-24T18:44:05.530Z,18.50
2022-12-24T18:46:34.923Z,15.75
2022-12-24T18:49:02.840Z,16.50
2022-12-24T18:51:32.239Z,15.80
2022-12-24T18:53:59.848Z,16.13
2022-12-24T18:56:27.773Z,14.00
2022-12-24T18:58:58.296Z,15.20
2022-12-24T19:01:27.049Z,14.40
2022-12-24T19:03:56.646Z,14.82
2022-12-24T19:06:25.214Z,17.70
2022-12-24T19:08:58.421Z,14.03
2022-12-24T19:11:28.203Z,15.70
2022-12-24T19:13:55.680Z,14.13
2022-12-24T19:16:23.722Z,12.18
2022-12-24T19:18:51.473Z,12.27
2022-12-24T19:21:21.996Z,16.60
2022-12-24T19:23:49.612Z,11.65
2022-12-24T19:26:18.159Z,12.75
2022-12-24T19:28:46.104Z,15.77
2022-12-24T19:31:15.106Z,13.52
2022-12-24T19:33:43.973Z,7.23
2022-12-24T19:36:12.798Z,17.20
2022-12-24T19:38:41.758Z,11.60
2022-12-24T19:41:09.816Z,11.65
2022-12-24T19:43:37.973Z,12.68
2022-12-24T19:46:05.635Z,7.40
2022-12-24T19:48:33.523Z,13.15
2022-12-24T19:51:01.830Z,10.38
2022-12-24T19:53:29.556Z,7.57
2022-12-24T19:55:58.929Z,8.77
2022-12-24T19:58:26.797Z,12.07
2022-12-24T20:00:54.966Z,7.20
2022-12-24T20:03:22.920Z,8.38
2022-12-24T20:05:50.416Z,10.60
2022-12-24T20:08:18.038Z,11.80
2022-12-24T20:10:45.839Z,11.57
2022-12-24T20:13:15.187Z,11.93
2022-12-24T20:15:43.762Z,8.75
2022-12-24T20:18:13.591Z,12.32
2022-12-24T20:20:41.451Z,6.07
2022-12-24T20:23:09.340Z,4.13
2022-12-24T20:25:37.882Z,14.50
2022-12-24T20:28:05.766Z,6.03
2022-12-24T20:30:36.578Z,6.88
2022-12-24T20:33:04.254Z,14.07
2022-12-24T20:35:37.740Z,9.40
2022-12-24T20:38:05.371Z,8.70
2022-12-24T20:40:32.916Z,10.15
2022-12-24T20:43:00.558Z,7.18
2022-12-24T20:45:28.311Z,7.97
2022-12-24T20:47:57.866Z,11.50
2022-12-24T20:50:27.474Z,10.55
2022-12-24T20:52:55.157Z,7.18
2022-12-24T20:55:22.687Z,7.93
2022-12-24T20:57:50.649Z,10.13
2022-12-24T21:00:19.849Z,6.67
2022-12-24T21:02:47.648Z,5.95
2022-12-24T21:05:21.817Z,7.55
2022-12-24T21:07:49.439Z,8.02
2022-12-24T21:10:17.548Z,6.70
2022-12-24T21:12:50.167Z,9.60
2022-12-24T21:15:19.845Z,6.72
2022-12-24T21:17:47.861Z,9.48
2022-12-24T21:20:17.006Z,9.50
2022-12-24T21:22:44.956Z,8.57
2022-12-24T21:25:12.821Z,4.93
2022-12-24T21:27:40.385Z,8.45
2022-12-24T21:30:09.791Z,9.60
2022-12-24T21:32:37.471Z,9.20
2022-12-24T21:35:08.560Z,8.30
2022-12-24T21:37:37.809Z,8.33
2022-12-24T21:40:05.963Z,6.63
2022-12-24T21:42:33.476Z,6.95
2022-12-24T21:45:01.812Z,7.68
2022-12-24T21:47:29.326Z,8.35
2022-12-24T21:50:14.456Z,10.63
2022-12-24T21:52:43.604Z,11.25
2022-12-24T21:55:10.158Z,5.55
2022-12-24T21:57:56.271Z,7.28
2022-12-24T22:00:26.604Z,9.48
2022-12-24T22:02:55.039Z,4.83
2022-12-24T22:05:23.066Z,6.05
2022-12-24T22:08:09.621Z,7.20
2022-12-24T22:10:56.043Z,7.05
2022-12-24T22:13:25.462Z,6.68
2022-12-24T22:15:53.688Z,9.07
2022-12-24T22:18:22.194Z,4.97
2022-12-24T22:20:49.980Z,6.40
2022-12-24T22:23:19.366Z,9.02
2022-12-24T22:25:47.259Z,7.10
2022-12-24T22:28:15.070Z,9.57
2022-12-24T22:30:47.662Z,5.28
2022-12-24T22:33:15.218Z,7.68
2022-12-24T22:35:43.106Z,10.25
2022-12-24T22:38:11.612Z,7.45
2022-12-24T22:40:41.375Z,11.97
2022-12-24T22:43:09.450Z,8.63
2022-12-24T22:45:40.428Z,9.18
2022-12-24T22:48:08.174Z,15.73
2022-12-24T22:50:35.964Z,8.13
2022-12-24T22:53:03.550Z,9.67
2022-12-24T22:55:31.063Z,10.60
2022-12-24T22:58:00.173Z,9.63
2022-12-24T23:00:38.721Z,11.02
2022-12-24T23:03:06.752Z,11.73
2022-12-24T23:05:35.129Z,14.47
2022-12-24T23:08:02.944Z,8.07
2022-12-24T23:10:30.743Z,11.88
2022-12-24T23:13:16.266Z,8.43
2022-12-24T23:15:45.585Z,6.43
2022-12-24T23:18:13.726Z,8.43
2022-12-24T23:20:43.072Z,7.60
2022-12-24T23:23:10.671Z,9.73
2022-12-24T23:25:38.243Z,8.80
2022-12-24T23:28:05.924Z,7.35
2022-12-24T23:30:33.662Z,7.33
2022-12-24T23:33:02.837Z,9.23
2022-12-24T23:35:30.439Z,10.02
2022-12-24T23:37:58.057Z,11.85
2022-12-24T23:40:27.402Z,10.98
2022-12-24T23:42:55.099Z,8.73
2022-12-24T23:45:22.890Z,7.97
2022-12-24T23:47:50.462Z,10.20
2022-12-24T23:50:19.761Z,7.18
2022-12-24T23:52:47.476Z,12.15
2022-12-24T23:55:14.999Z,11.97
2022-12-24T23:57:42.665Z,8.88
